sensor_id;sensor_type;location;lat;lon;timestamp;temperature;humidity
35111;DHT22;21290;50.158;8.658;2023-05-16T00:00:51;11.50;99.90
35111;DHT22;21290;50.158;8.658;2023-05-16T00:03:23;11.50;99.90
35111;DHT22;21290;50.158;8.658;2023-05-16T00:05:50;11.40;99.90
35111;DHT22;21290;50.158;8.658;2023-05-16T00:08:17;11.40;99.90
35111;DHT22;21290;50.158;8.658;2023-05-16T00:10:43;11.40;99.90
35111;DHT22;21290;50.158;8.658;2023-05-16T00:13:10;11.40;99.90
35111;DHT22;21290;50.158;8.658;2023-05-16T00:15:37;11.40;99.90
35111;DHT22;21290;50.158;8.658;2023-05-16T00:18:04;11.40;99.90
35111;DHT22;21290;50.158;8.658;2023-05-16T00:20:30;11.30;99.90
35111;DHT22;21290;50.158;8.658;2023-05-16T00:22:57;11.30;99.90
35111;DHT22;21290;50.158;8.658;2023-05-16T00:25:27;11.30;99.90
35111;DHT22;21290;50.158;8.658;2023-05-16T00:27:54;11.30;99.90
35111;DHT22;21290;50.158;8.658;2023-05-16T00:30:20;11.40;99.90
35111;DHT22;21290;50.158;8.658;2023-05-16T00:32:48;11.40;99.90
35111;DHT22;21290;50.158;8.658;2023-05-16T00:35:14;11.30;99.90
35111;DHT22;21290;50.158;8.658;2023-05-16T00:37:41;11.40;99.90
35111;DHT22;21290;50.158;8.658;2023-05-16T00:40:08;11.30;99.90
35111;DHT22;21290;50.158;8.658;2023-05-16T00:42:35;11.30;99.90
35111;DHT22;21290;50.158;8.658;2023-05-16T00:45:02;11.30;99.90
35111;DHT22;21290;50.158;8.658;2023-05-16T00:47:29;11.30;99.90
35111;DHT22;21290;50.158;8.658;2023-05-16T00:49:55;11.30;99.90
35111;DHT22;21290;50.158;8.658;2023-05-16T00:52:23;11.20;99.90
35111;DHT22;21290;50.158;8.658;2023-05-16T00:54:50;11.20;99.90
35111;DHT22;21290;50.158;8.658;2023-05-16T00:57:17;11.20;99.90
35111;DHT22;21290;50.158;8.658;2023-05-16T00:59:45;11.20;99.90
35111;DHT22;21290;50.158;8.658;2023-05-16T01:02:12;11.20;99.90
35111;DHT22;21290;50.158;8.658;2023-05-16T01:04:40;11.30;99.90
35111;DHT22;21290;50.158;8.658;2023-05-16T01:07:07;11.30;99.90
35111;DHT22;21290;50.158;8.658;2023-05-16T01:09:35;11.30;99.90
35111;DHT22;21290;50.158;8.658;2023-05-16T01:12:15;11.30;99.90
35111;DHT22;21290;50.158;8.658;2023-05-16T01:15:07;11.20;99.90
35111;DHT22;21290;50.158;8.658;2023-05-16T01:18:00;11.20;99.90
35111;DHT22;21290;50.158;8.658;2023-05-16T01:23:33;11.20;99.90
35111;DHT22;21290;50.158;8.658;2023-05-16T01:28:36;11.20;99.90
35111;DHT22;21290;50.158;8.658;2023-05-16T01:31:04;11.30;99.90
35111;DHT22;21290;50.158;8.658;2023-05-16T01:33:31;11.30;99.90
35111;DHT22;21290;50.158;8.658;2023-05-16T01:44:49;11.30;99.90
35111;DHT22;21290;50.158;8.658;2023-05-16T01:47:18;11.30;99.90
35111;DHT22;21290;50.158;8.658;2023-05-16T01:52:21;11.50;99.90
35111;DHT22;21290;50.158;8.658;2023-05-16T01:54:51;11.50;99.90
35111;DHT22;21290;50.158;8.658;2023-05-16T01:57:23;11.50;99.90
35111;DHT22;21290;50.158;8.658;2023-05-16T01:59:51;11.50;99.90
35111;DHT22;21290;50.158;8.658;2023-05-16T02:02:18;11.50;99.90
35111;DHT22;21290;50.158;8.658;2023-05-16T02:04:45;11.50;99.90
35111;DHT22;21290;50.158;8.658;2023-05-16T02:07:12;11.50;99.90
35111;DHT22;21290;50.158;8.658;2023-05-16T02:09:40;11.50;99.90
35111;DHT22;21290;50.158;8.658;2023-05-16T02:12:07;11.40;99.90
35111;DHT22;21290;50.158;8.658;2023-05-16T02:14:33;11.40;99.90
35111;DHT22;21290;50.158;8.658;2023-05-16T02:17:00;11.30;99.90
35111;DHT22;21290;50.158;8.658;2023-05-16T02:19:27;11.30;99.90
35111;DHT22;21290;50.158;8.658;2023-05-16T02:21:53;11.30;99.90
35111;DHT22;21290;50.158;8.658;2023-05-16T02:24:20;11.30;99.90
35111;DHT22;21290;50.158;8.658;2023-05-16T02:26:47;11.30;99.90
35111;DHT22;21290;50.158;8.658;2023-05-16T02:29:13;11.30;99.90
35111;DHT22;21290;50.158;8.658;2023-05-16T02:31:41;11.30;99.90
35111;DHT22;21290;50.158;8.658;2023-05-16T02:34:08;11.30;99.90
35111;DHT22;21290;50.158;8.658;2023-05-16T02:36:35;11.30;99.90
35111;DHT22;21290;50.158;8.658;2023-05-16T02:39:02;11.30;99.90
35111;DHT22;21290;50.158;8.658;2023-05-16T02:41:29;11.30;99.90
35111;DHT22;21290;50.158;8.658;2023-05-16T02:43:57;11.40;99.90
35111;DHT22;21290;50.158;8.658;2023-05-16T02:46:29;11.30;99.90
35111;DHT22;21290;50.158;8.658;2023-05-16T02:48:56;11.40;99.90
35111;DHT22;21290;50.158;8.658;2023-05-16T02:51:25;11.40;99.90
35111;DHT22;21290;50.158;8.658;2023-05-16T02:53:53;11.30;99.90
35111;DHT22;21290;50.158;8.658;2023-05-16T02:56:19;11.30;99.90
35111;DHT22;21290;50.158;8.658;2023-05-16T02:58:48;11.30;99.90
35111;DHT22;21290;50.158;8.658;2023-05-16T03:01:16;11.30;99.90
35111;DHT22;21290;50.158;8.658;2023-05-16T03:03:42;11.30;99.90
35111;DHT22;21290;50.158;8.658;2023-05-16T03:06:09;11.20;99.90
35111;DHT22;21290;50.158;8.658;2023-05-16T03:08:36;11.20;99.90
35111;DHT22;21290;50.158;8.658;2023-05-16T03:11:02;11.20;99.90
35111;DHT22;21290;50.158;8.658;2023-05-16T03:13:29;11.20;99.90
35111;DHT22;21290;50.158;8.658;2023-05-16T03:15:56;11.10;99.90
35111;DHT22;21290;50.158;8.658;2023-05-16T03:18:23;11.10;99.90
35111;DHT22;21290;50.158;8.658;2023-05-16T03:20:49;11.10;99.90
35111;DHT22;21290;50.158;8.658;2023-05-16T03:23:19;11.10;99.90
35111;DHT22;21290;50.158;8.658;2023-05-16T03:25:46;11.20;99.90
35111;DHT22;21290;50.158;8.658;2023-05-16T03:28:12;11.20;99.90
35111;DHT22;21290;50.158;8.658;2023-05-16T03:30:40;11.20;99.90
35111;DHT22;21290;50.158;8.658;2023-05-16T03:33:07;11.20;99.90
35111;DHT22;21290;50.158;8.658;2023-05-16T03:35:35;11.10;99.90
35111;DHT22;21290;50.158;8.658;2023-05-16T03:38:02;11.20;99.90
35111;DHT22;21290;50.158;8.658;2023-05-16T03:40:29;11.10;99.90
35111;DHT22;21290;50.158;8.658;2023-05-16T03:42:56;11.10;99.90
35111;DHT22;21290;50.158;8.658;2023-05-16T03:45:22;11.10;99.90
35111;DHT22;21290;50.158;8.658;2023-05-16T03:47:49;11.20;99.90
35111;DHT22;21290;50.158;8.658;2023-05-16T03:50:16;11.20;99.90
35111;DHT22;21290;50.158;8.658;2023-05-16T03:52:43;11.30;99.90
35111;DHT22;21290;50.158;8.658;2023-05-16T03:55:10;11.40;99.90
35111;DHT22;21290;50.158;8.658;2023-05-16T03:57:40;11.50;99.90
35111;DHT22;21290;50.158;8.658;2023-05-16T04:00:38;11.60;99.90
35111;DHT22;21290;50.158;8.658;2023-05-16T04:03:04;11.60;99.90
35111;DHT22;21290;50.158;8.658;2023-05-16T04:05:32;11.70;99.90
35111;DHT22;21290;50.158;8.658;2023-05-16T04:07:58;11.70;99.90
35111;DHT22;21290;50.158;8.658;2023-05-16T04:10:25;11.80;99.90
35111;DHT22;21290;50.158;8.658;2023-05-16T04:12:51;11.80;99.90
35111;DHT22;21290;50.158;8.658;2023-05-16T04:15:18;11.90;99.90
35111;DHT22;21290;50.158;8.658;2023-05-16T04:17:44;11.90;99.90
35111;DHT22;21290;50.158;8.658;2023-05-16T04:20:11;11.90;99.90
35111;DHT22;21290;50.158;8.658;2023-05-16T04:22:38;12.00;99.90
35111;DHT22;21290;50.158;8.658;2023-05-16T04:25:05;12.10;99.90
35111;DHT22;21290;50.158;8.658;2023-05-16T04:27:32;12.20;99.90
35111;DHT22;21290;50.158;8.658;2023-05-16T04:29:59;12.20;99.90
35111;DHT22;21290;50.158;8.658;2023-05-16T04:32:26;12.40;99.90
35111;DHT22;21290;50.158;8.658;2023-05-16T04:34:54;12.50;99.90
35111;DHT22;21290;50.158;8.658;2023-05-16T04:37:21;12.50;99.90
35111;DHT22;21290;50.158;8.658;2023-05-16T04:39:47;12.60;99.90
35111;DHT22;21290;50.158;8.658;2023-05-16T04:42:14;12.70;99.90
35111;DHT22;21290;50.158;8.658;2023-05-16T04:44:41;12.70;99.90
35111;DHT22;21290;50.158;8.658;2023-05-16T04:47:09;12.80;99.90
35111;DHT22;21290;50.158;8.658;2023-05-16T04:49:36;12.80;99.90
35111;DHT22;21290;50.158;8.658;2023-05-16T04:52:03;12.90;99.90
35111;DHT22;21290;50.158;8.658;2023-05-16T04:54:30;13.00;99.90
35111;DHT22;21290;50.158;8.658;2023-05-16T04:56:56;13.00;99.90
35111;DHT22;21290;50.158;8.658;2023-05-16T04:59:23;13.00;99.90
35111;DHT22;21290;50.158;8.658;2023-05-16T05:01:50;13.10;99.90
35111;DHT22;21290;50.158;8.658;2023-05-16T05:04:16;13.00;99.90
35111;DHT22;21290;50.158;8.658;2023-05-16T05:06:43;13.10;99.90
35111;DHT22;21290;50.158;8.658;2023-05-16T05:09:09;13.10;99.90
35111;DHT22;21290;50.158;8.658;2023-05-16T05:11:36;13.10;99.90
35111;DHT22;21290;50.158;8.658;2023-05-16T05:14:03;13.10;99.90
35111;DHT22;21290;50.158;8.658;2023-05-16T05:16:29;13.20;99.90
35111;DHT22;21290;50.158;8.658;2023-05-16T05:18:56;13.20;99.90
35111;DHT22;21290;50.158;8.658;2023-05-16T05:21:23;13.10;99.90
35111;DHT22;21290;50.158;8.658;2023-05-16T05:23:50;13.20;99.90
35111;DHT22;21290;50.158;8.658;2023-05-16T05:26:17;13.20;99.90
35111;DHT22;21290;50.158;8.658;2023-05-16T05:28:44;13.20;99.90
35111;DHT22;21290;50.158;8.658;2023-05-16T05:31:27;13.20;99.90
35111;DHT22;21290;50.158;8.658;2023-05-16T05:33:53;13.20;99.90
35111;DHT22;21290;50.158;8.658;2023-05-16T05:36:20;13.20;99.90
35111;DHT22;21290;50.158;8.658;2023-05-16T05:38:46;13.10;99.90
35111;DHT22;21290;50.158;8.658;2023-05-16T05:41:13;13.20;99.90
35111;DHT22;21290;50.158;8.658;2023-05-16T05:43:39;13.10;99.90
35111;DHT22;21290;50.158;8.658;2023-05-16T05:46:07;13.10;99.90
35111;DHT22;21290;50.158;8.658;2023-05-16T05:48:34;13.10;99.90
35111;DHT22;21290;50.158;8.658;2023-05-16T05:51:01;13.10;99.90
35111;DHT22;21290;50.158;8.658;2023-05-16T05:53:27;13.00;99.90
35111;DHT22;21290;50.158;8.658;2023-05-16T05:55:54;12.90;99.90
35111;DHT22;21290;50.158;8.658;2023-05-16T05:58:21;12.90;99.90
35111;DHT22;21290;50.158;8.658;2023-05-16T06:00:48;12.90;99.90
35111;DHT22;21290;50.158;8.658;2023-05-16T06:03:15;12.90;99.90
35111;DHT22;21290;50.158;8.658;2023-05-16T06:05:42;12.90;99.90
35111;DHT22;21290;50.158;8.658;2023-05-16T06:08:09;12.90;99.90
35111;DHT22;21290;50.158;8.658;2023-05-16T06:10:36;12.90;99.90
35111;DHT22;21290;50.158;8.658;2023-05-16T06:13:03;12.90;99.90
35111;DHT22;21290;50.158;8.658;2023-05-16T06:15:29;12.80;99.90
35111;DHT22;21290;50.158;8.658;2023-05-16T06:17:56;12.90;99.90
35111;DHT22;21290;50.158;8.658;2023-05-16T06:20:23;13.00;99.90
35111;DHT22;21290;50.158;8.658;2023-05-16T06:22:50;13.10;99.90
35111;DHT22;21290;50.158;8.658;2023-05-16T06:25:16;13.30;99.90
35111;DHT22;21290;50.158;8.658;2023-05-16T06:27:43;13.40;99.90
35111;DHT22;21290;50.158;8.658;2023-05-16T06:30:10;13.50;99.90
35111;DHT22;21290;50.158;8.658;2023-05-16T06:32:36;13.60;99.90
35111;DHT22;21290;50.158;8.658;2023-05-16T06:35:03;13.70;99.90
35111;DHT22;21290;50.158;8.658;2023-05-16T06:37:30;13.80;99.90
35111;DHT22;21290;50.158;8.658;2023-05-16T06:39:57;13.80;99.90
35111;DHT22;21290;50.158;8.658;2023-05-16T06:42:24;13.80;99.90
35111;DHT22;21290;50.158;8.658;2023-05-16T06:44:51;13.60;99.90
35111;DHT22;21290;50.158;8.658;2023-05-16T06:47:17;13.50;99.90
35111;DHT22;21290;50.158;8.658;2023-05-16T06:49:44;13.40;99.90
35111;DHT22;21290;50.158;8.658;2023-05-16T06:52:10;13.30;99.90
35111;DHT22;21290;50.158;8.658;2023-05-16T06:54:37;13.30;99.90
35111;DHT22;21290;50.158;8.658;2023-05-16T06:57:04;13.20;99.90
35111;DHT22;21290;50.158;8.658;2023-05-16T06:59:30;13.10;99.90
35111;DHT22;21290;50.158;8.658;2023-05-16T07:01:58;13.00;99.90
35111;DHT22;21290;50.158;8.658;2023-05-16T07:04:24;13.00;99.90
35111;DHT22;21290;50.158;8.658;2023-05-16T07:06:51;13.10;99.90
35111;DHT22;21290;50.158;8.658;2023-05-16T07:09:19;12.90;99.90
35111;DHT22;21290;50.158;8.658;2023-05-16T07:11:46;12.90;99.90
35111;DHT22;21290;50.158;8.658;2023-05-16T07:14:12;12.90;99.90
35111;DHT22;21290;50.158;8.658;2023-05-16T07:16:39;12.90;99.90
35111;DHT22;21290;50.158;8.658;2023-05-16T07:19:06;12.80;99.90
35111;DHT22;21290;50.158;8.658;2023-05-16T07:21:34;12.80;99.90
35111;DHT22;21290;50.158;8.658;2023-05-16T07:24:00;12.80;99.90
35111;DHT22;21290;50.158;8.658;2023-05-16T07:26:27;12.80;99.90
35111;DHT22;21290;50.158;8.658;2023-05-16T07:28:54;12.80;99.90
35111;DHT22;21290;50.158;8.658;2023-05-16T07:31:21;12.90;99.90
35111;DHT22;21290;50.158;8.658;2023-05-16T07:33:48;12.80;99.90
35111;DHT22;21290;50.158;8.658;2023-05-16T07:36:15;12.80;99.90
35111;DHT22;21290;50.158;8.658;2023-05-16T07:38:43;12.80;99.90
35111;DHT22;21290;50.158;8.658;2023-05-16T07:41:10;12.80;99.90
35111;DHT22;21290;50.158;8.658;2023-05-16T07:43:37;12.60;99.90
35111;DHT22;21290;50.158;8.658;2023-05-16T07:46:04;12.60;99.90
35111;DHT22;21290;50.158;8.658;2023-05-16T07:48:31;12.50;99.90
35111;DHT22;21290;50.158;8.658;2023-05-16T07:50:57;12.40;99.90
35111;DHT22;21290;50.158;8.658;2023-05-16T07:53:24;12.30;99.90
35111;DHT22;21290;50.158;8.658;2023-05-16T07:55:51;12.20;99.90
35111;DHT22;21290;50.158;8.658;2023-05-16T07:58:17;12.20;99.90
35111;DHT22;21290;50.158;8.658;2023-05-16T08:00:45;12.20;99.90
35111;DHT22;21290;50.158;8.658;2023-05-16T08:03:12;12.20;99.90
35111;DHT22;21290;50.158;8.658;2023-05-16T08:05:38;12.30;99.90
35111;DHT22;21290;50.158;8.658;2023-05-16T08:08:05;12.20;99.90
35111;DHT22;21290;50.158;8.658;2023-05-16T08:10:32;12.20;99.90
35111;DHT22;21290;50.158;8.658;2023-05-16T08:12:59;12.10;99.90
35111;DHT22;21290;50.158;8.658;2023-05-16T08:15:26;12.10;99.90
35111;DHT22;21290;50.158;8.658;2023-05-16T08:17:57;12.20;99.90
35111;DHT22;21290;50.158;8.658;2023-05-16T08:20:25;12.20;99.90
35111;DHT22;21290;50.158;8.658;2023-05-16T08:22:52;12.10;99.90
35111;DHT22;21290;50.158;8.658;2023-05-16T08:25:19;12.10;99.90
35111;DHT22;21290;50.158;8.658;2023-05-16T08:27:47;12.10;99.90
35111;DHT22;21290;50.158;8.658;2023-05-16T08:30:14;12.00;99.90
35111;DHT22;21290;50.158;8.658;2023-05-16T08:32:40;12.00;99.90
35111;DHT22;21290;50.158;8.658;2023-05-16T08:35:07;12.00;99.90
35111;DHT22;21290;50.158;8.658;2023-05-16T08:37:35;12.00;99.90
35111;DHT22;21290;50.158;8.658;2023-05-16T08:40:03;12.00;99.90
35111;DHT22;21290;50.158;8.658;2023-05-16T08:42:32;12.00;99.90
35111;DHT22;21290;50.158;8.658;2023-05-16T08:44:59;12.00;99.90
35111;DHT22;21290;50.158;8.658;2023-05-16T08:47:26;12.00;99.90
35111;DHT22;21290;50.158;8.658;2023-05-16T08:49:56;12.10;99.90
35111;DHT22;21290;50.158;8.658;2023-05-16T08:52:26;12.20;99.90
35111;DHT22;21290;50.158;8.658;2023-05-16T08:55:00;12.30;99.90
35111;DHT22;21290;50.158;8.658;2023-05-16T08:57:37;12.30;99.90
35111;DHT22;21290;50.158;8.658;2023-05-16T09:00:06;12.30;99.90
35111;DHT22;21290;50.158;8.658;2023-05-16T09:02:42;12.30;99.90
35111;DHT22;21290;50.158;8.658;2023-05-16T09:05:14;12.30;99.90
35111;DHT22;21290;50.158;8.658;2023-05-16T09:07:42;12.30;99.90
35111;DHT22;21290;50.158;8.658;2023-05-16T09:10:10;12.30;99.90
35111;DHT22;21290;50.158;8.658;2023-05-16T09:12:39;12.40;99.90
35111;DHT22;21290;50.158;8.658;2023-05-16T09:15:06;12.40;99.90
35111;DHT22;21290;50.158;8.658;2023-05-16T09:17:44;12.40;99.90
35111;DHT22;21290;50.158;8.658;2023-05-16T09:20:19;12.70;99.90
35111;DHT22;21290;50.158;8.658;2023-05-16T09:22:51;12.80;99.90
35111;DHT22;21290;50.158;8.658;2023-05-16T09:25:19;13.10;99.90
35111;DHT22;21290;50.158;8.658;2023-05-16T09:27:57;13.30;99.90
35111;DHT22;21290;50.158;8.658;2023-05-16T09:30:29;13.60;99.90
35111;DHT22;21290;50.158;8.658;2023-05-16T09:32:57;13.80;99.90
35111;DHT22;21290;50.158;8.658;2023-05-16T09:35:25;13.90;99.90
35111;DHT22;21290;50.158;8.658;2023-05-16T09:37:55;14.10;99.90
35111;DHT22;21290;50.158;8.658;2023-05-16T09:40:22;14.20;99.90
35111;DHT22;21290;50.158;8.658;2023-05-16T09:43:04;14.40;99.90
35111;DHT22;21290;50.158;8.658;2023-05-16T09:45:32;14.60;99.90
35111;DHT22;21290;50.158;8.658;2023-05-16T09:48:04;14.90;99.90
35111;DHT22;21290;50.158;8.658;2023-05-16T09:50:33;15.10;99.90
35111;DHT22;21290;50.158;8.658;2023-05-16T09:53:00;15.30;99.90
35111;DHT22;21290;50.158;8.658;2023-05-16T09:55:27;15.50;99.90
35111;DHT22;21290;50.158;8.658;2023-05-16T09:57:55;15.60;99.90
35111;DHT22;21290;50.158;8.658;2023-05-16T10:00:21;15.80;99.90
35111;DHT22;21290;50.158;8.658;2023-05-16T10:02:56;16.00;99.90
35111;DHT22;21290;50.158;8.658;2023-05-16T10:05:26;16.20;99.90
35111;DHT22;21290;50.158;8.658;2023-05-16T10:07:56;16.20;99.90
35111;DHT22;21290;50.158;8.658;2023-05-16T10:10:24;15.90;99.90
35111;DHT22;21290;50.158;8.658;2023-05-16T10:12:50;15.90;99.90
35111;DHT22;21290;50.158;8.658;2023-05-16T10:15:18;15.70;99.90
35111;DHT22;21290;50.158;8.658;2023-05-16T10:17:50;15.50;99.90
35111;DHT22;21290;50.158;8.658;2023-05-16T10:20:19;15.10;99.90
35111;DHT22;21290;50.158;8.658;2023-05-16T10:22:49;15.00;99.90
35111;DHT22;21290;50.158;8.658;2023-05-16T10:25:38;15.00;99.90
35111;DHT22;21290;50.158;8.658;2023-05-16T10:28:07;15.00;99.90
35111;DHT22;21290;50.158;8.658;2023-05-16T10:30:35;15.20;99.90
35111;DHT22;21290;50.158;8.658;2023-05-16T10:33:02;15.30;99.90
35111;DHT22;21290;50.158;8.658;2023-05-16T10:35:30;15.30;99.90
35111;DHT22;21290;50.158;8.658;2023-05-16T10:37:58;15.50;99.90
35111;DHT22;21290;50.158;8.658;2023-05-16T10:40:26;15.50;99.90
35111;DHT22;21290;50.158;8.658;2023-05-16T10:43:01;15.50;99.90
35111;DHT22;21290;50.158;8.658;2023-05-16T10:45:29;15.50;99.90
35111;DHT22;21290;50.158;8.658;2023-05-16T10:48:02;15.70;99.90
35111;DHT22;21290;50.158;8.658;2023-05-16T10:50:37;15.60;99.90
35111;DHT22;21290;50.158;8.658;2023-05-16T10:53:19;15.80;99.90
35111;DHT22;21290;50.158;8.658;2023-05-16T10:55:49;15.90;99.90
35111;DHT22;21290;50.158;8.658;2023-05-16T10:58:40;15.90;99.90
35111;DHT22;21290;50.158;8.658;2023-05-16T11:01:31;16.00;99.90
35111;DHT22;21290;50.158;8.658;2023-05-16T11:19:43;16.20;99.70
35111;DHT22;21290;50.158;8.658;2023-05-16T11:22:31;16.20;99.90
35111;DHT22;21290;50.158;8.658;2023-05-16T11:25:03;16.50;99.90
35111;DHT22;21290;50.158;8.658;2023-05-16T11:27:41;16.40;98.40
35111;DHT22;21290;50.158;8.658;2023-05-16T11:30:16;16.50;98.60
35111;DHT22;21290;50.158;8.658;2023-05-16T11:32:45;16.50;98.70
35111;DHT22;21290;50.158;8.658;2023-05-16T11:35:14;16.70;97.80
35111;DHT22;21290;50.158;8.658;2023-05-16T11:37:42;16.70;97.50
35111;DHT22;21290;50.158;8.658;2023-05-16T11:40:10;16.90;98.20
35111;DHT22;21290;50.158;8.658;2023-05-16T11:42:41;17.20;97.80
35111;DHT22;21290;50.158;8.658;2023-05-16T11:45:14;17.20;96.70
35111;DHT22;21290;50.158;8.658;2023-05-16T11:47:42;17.40;96.90
35111;DHT22;21290;50.158;8.658;2023-05-16T11:50:20;17.40;96.00
35111;DHT22;21290;50.158;8.658;2023-05-16T11:52:49;17.50;96.60
35111;DHT22;21290;50.158;8.658;2023-05-16T11:55:21;17.60;96.60
35111;DHT22;21290;50.158;8.658;2023-05-16T11:58:07;17.90;96.70
35111;DHT22;21290;50.158;8.658;2023-05-16T12:00:33;18.30;95.40
35111;DHT22;21290;50.158;8.658;2023-05-16T12:03:02;19.00;96.30
35111;DHT22;21290;50.158;8.658;2023-05-16T12:05:32;19.50;94.80
35111;DHT22;21290;50.158;8.658;2023-05-16T12:08:00;19.50;93.70
35111;DHT22;21290;50.158;8.658;2023-05-16T12:10:30;19.70;94.00
35111;DHT22;21290;50.158;8.658;2023-05-16T12:12:57;19.80;90.50
35111;DHT22;21290;50.158;8.658;2023-05-16T12:15:24;19.80;87.00
35111;DHT22;21290;50.158;8.658;2023-05-16T12:17:51;20.00;88.60
35111;DHT22;21290;50.158;8.658;2023-05-16T12:20:18;20.10;88.70
35111;DHT22;21290;50.158;8.658;2023-05-16T12:22:45;20.20;89.40
35111;DHT22;21290;50.158;8.658;2023-05-16T12:25:29;20.40;86.50
35111;DHT22;21290;50.158;8.658;2023-05-16T12:28:00;20.40;81.40
35111;DHT22;21290;50.158;8.658;2023-05-16T12:30:29;20.60;82.80
35111;DHT22;21290;50.158;8.658;2023-05-16T12:33:06;20.60;81.20
35111;DHT22;21290;50.158;8.658;2023-05-16T12:35:37;20.20;77.10
35111;DHT22;21290;50.158;8.658;2023-05-16T12:38:10;19.70;77.10
35111;DHT22;21290;50.158;8.658;2023-05-16T12:40:38;19.60;79.80
35111;DHT22;21290;50.158;8.658;2023-05-16T12:43:35;19.60;80.70
35111;DHT22;21290;50.158;8.658;2023-05-16T12:46:01;19.50;80.70
35111;DHT22;21290;50.158;8.658;2023-05-16T12:48:32;19.40;80.30
35111;DHT22;21290;50.158;8.658;2023-05-16T12:51:13;19.40;79.20
35111;DHT22;21290;50.158;8.658;2023-05-16T12:53:42;19.50;76.30
35111;DHT22;21290;50.158;8.658;2023-05-16T12:56:15;19.90;77.60
35111;DHT22;21290;50.158;8.658;2023-05-16T12:58:42;19.90;76.10
35111;DHT22;21290;50.158;8.658;2023-05-16T13:01:09;20.00;77.60
35111;DHT22;21290;50.158;8.658;2023-05-16T13:03:35;20.10;80.50
35111;DHT22;21290;50.158;8.658;2023-05-16T13:06:02;20.30;79.70
35111;DHT22;21290;50.158;8.658;2023-05-16T13:08:29;20.20;74.60
35111;DHT22;21290;50.158;8.658;2023-05-16T13:10:56;19.90;73.00
35111;DHT22;21290;50.158;8.658;2023-05-16T13:13:23;19.80;76.90
35111;DHT22;21290;50.158;8.658;2023-05-16T13:16:02;20.00;78.90
35111;DHT22;21290;50.158;8.658;2023-05-16T13:18:29;20.10;77.10
35111;DHT22;21290;50.158;8.658;2023-05-16T13:20:56;19.90;76.60
35111;DHT22;21290;50.158;8.658;2023-05-16T13:23:23;19.80;74.00
35111;DHT22;21290;50.158;8.658;2023-05-16T13:25:50;19.70;75.00
35111;DHT22;21290;50.158;8.658;2023-05-16T13:28:18;19.60;78.30
35111;DHT22;21290;50.158;8.658;2023-05-16T13:30:45;19.60;75.90
35111;DHT22;21290;50.158;8.658;2023-05-16T13:33:11;19.70;74.40
35111;DHT22;21290;50.158;8.658;2023-05-16T13:35:38;19.80;74.60
35111;DHT22;21290;50.158;8.658;2023-05-16T13:38:05;19.80;73.30
35111;DHT22;21290;50.158;8.658;2023-05-16T13:40:31;19.90;74.50
35111;DHT22;21290;50.158;8.658;2023-05-16T13:42:58;19.90;75.40
35111;DHT22;21290;50.158;8.658;2023-05-16T13:45:27;20.10;75.40
35111;DHT22;21290;50.158;8.658;2023-05-16T13:47:54;19.90;72.10
35111;DHT22;21290;50.158;8.658;2023-05-16T13:50:21;19.70;73.80
35111;DHT22;21290;50.158;8.658;2023-05-16T13:52:48;19.50;75.60
35111;DHT22;21290;50.158;8.658;2023-05-16T13:55:14;19.20;74.00
35111;DHT22;21290;50.158;8.658;2023-05-16T13:57:41;19.10;75.70
35111;DHT22;21290;50.158;8.658;2023-05-16T14:00:08;19.00;75.30
35111;DHT22;21290;50.158;8.658;2023-05-16T14:02:41;19.00;74.80
35111;DHT22;21290;50.158;8.658;2023-05-16T14:05:08;18.90;75.50
35111;DHT22;21290;50.158;8.658;2023-05-16T14:07:35;18.70;75.30
35111;DHT22;21290;50.158;8.658;2023-05-16T14:10:02;18.80;75.50
35111;DHT22;21290;50.158;8.658;2023-05-16T14:12:29;18.70;74.70
35111;DHT22;21290;50.158;8.658;2023-05-16T14:14:56;18.60;74.80
35111;DHT22;21290;50.158;8.658;2023-05-16T14:17:24;18.40;73.50
35111;DHT22;21290;50.158;8.658;2023-05-16T14:19:52;18.50;75.50
35111;DHT22;21290;50.158;8.658;2023-05-16T14:22:19;18.50;72.30
35111;DHT22;21290;50.158;8.658;2023-05-16T14:24:46;18.40;72.50
35111;DHT22;21290;50.158;8.658;2023-05-16T14:27:14;18.20;71.40
35111;DHT22;21290;50.158;8.658;2023-05-16T14:29:42;17.90;71.90
35111;DHT22;21290;50.158;8.658;2023-05-16T14:32:09;17.80;74.60
35111;DHT22;21290;50.158;8.658;2023-05-16T14:34:36;17.90;75.20
35111;DHT22;21290;50.158;8.658;2023-05-16T14:37:03;18.00;75.60
35111;DHT22;21290;50.158;8.658;2023-05-16T14:39:30;18.10;73.30
35111;DHT22;21290;50.158;8.658;2023-05-16T14:41:56;18.10;71.10
35111;DHT22;21290;50.158;8.658;2023-05-16T14:44:23;17.90;71.20
35111;DHT22;21290;50.158;8.658;2023-05-16T14:46:50;17.80;72.40
35111;DHT22;21290;50.158;8.658;2023-05-16T14:49:17;17.60;70.90
35111;DHT22;21290;50.158;8.658;2023-05-16T14:51:43;17.40;72.30
35111;DHT22;21290;50.158;8.658;2023-05-16T14:54:14;17.30;73.60
35111;DHT22;21290;50.158;8.658;2023-05-16T14:56:43;17.10;74.30
35111;DHT22;21290;50.158;8.658;2023-05-16T14:59:10;17.10;73.60
35111;DHT22;21290;50.158;8.658;2023-05-16T15:01:37;17.20;74.80
35111;DHT22;21290;50.158;8.658;2023-05-16T15:04:04;17.30;73.30
35111;DHT22;21290;50.158;8.658;2023-05-16T15:06:30;17.40;73.30
35111;DHT22;21290;50.158;8.658;2023-05-16T15:08:57;17.40;72.40
35111;DHT22;21290;50.158;8.658;2023-05-16T15:11:24;17.30;70.60
35111;DHT22;21290;50.158;8.658;2023-05-16T15:13:51;17.30;71.00
35111;DHT22;21290;50.158;8.658;2023-05-16T15:16:18;17.30;71.70
35111;DHT22;21290;50.158;8.658;2023-05-16T15:18:44;17.40;72.20
35111;DHT22;21290;50.158;8.658;2023-05-16T15:21:11;17.70;72.90
35111;DHT22;21290;50.158;8.658;2023-05-16T15:23:38;17.90;71.80
35111;DHT22;21290;50.158;8.658;2023-05-16T15:26:04;18.10;73.40
35111;DHT22;21290;50.158;8.658;2023-05-16T15:28:31;18.10;73.50
35111;DHT22;21290;50.158;8.658;2023-05-16T15:30:58;18.00;74.60
35111;DHT22;21290;50.158;8.658;2023-05-16T15:33:26;17.90;72.70
35111;DHT22;21290;50.158;8.658;2023-05-16T15:35:53;17.70;70.90
35111;DHT22;21290;50.158;8.658;2023-05-16T15:38:19;17.70;71.10
35111;DHT22;21290;50.158;8.658;2023-05-16T15:40:46;17.50;69.80
35111;DHT22;21290;50.158;8.658;2023-05-16T15:43:23;17.30;69.50
35111;DHT22;21290;50.158;8.658;2023-05-16T15:45:50;17.20;70.00
35111;DHT22;21290;50.158;8.658;2023-05-16T15:48:17;17.00;70.40
35111;DHT22;21290;50.158;8.658;2023-05-16T15:50:44;16.80;70.60
35111;DHT22;21290;50.158;8.658;2023-05-16T15:53:11;16.60;71.00
35111;DHT22;21290;50.158;8.658;2023-05-16T15:55:37;16.40;72.20
35111;DHT22;21290;50.158;8.658;2023-05-16T15:58:04;16.40;71.90
35111;DHT22;21290;50.158;8.658;2023-05-16T16:00:31;16.30;73.00
35111;DHT22;21290;50.158;8.658;2023-05-16T16:02:58;16.20;72.80
35111;DHT22;21290;50.158;8.658;2023-05-16T16:05:25;16.20;73.20
35111;DHT22;21290;50.158;8.658;2023-05-16T16:07:52;16.20;72.70
35111;DHT22;21290;50.158;8.658;2023-05-16T16:10:19;16.30;74.10